createdAt,value
2023-02-22T00:02:38.967Z,4.47
2023-02-22T00:07:41.288Z,4.55
2023-02-22T00:12:43.389Z,4.65
2023-02-22T00:17:46.063Z,4.75
2023-02-22T00:22:49.666Z,3.90
2023-02-22T00:27:52.892Z,4.65
2023-02-22T00:32:56.900Z,4.65
2023-02-22T00:38:00.773Z,4.75
2023-02-22T00:43:05.349Z,4.15
2023-02-22T00:48:08.718Z,4.75
2023-02-22T00:53:11.259Z,4.57
2023-02-22T00:58:13.086Z,4.55
2023-02-22T01:03:19.224Z,4.72
2023-02-22T01:08:21.289Z,4.40
2023-02-22T01:13:23.175Z,4.60
2023-02-22T01:18:25.998Z,3.75
2023-02-22T01:23:28.402Z,4.75
2023-02-22T01:28:33.493Z,4.88
2023-02-22T01:33:37.102Z,4.00
2023-02-22T01:38:40.020Z,4.07
2023-02-22T01:43:41.852Z,4.82
2023-02-22T01:48:49.489Z,4.45
2023-02-22T01:54:09.526Z,4.18
2023-02-22T01:59:12.642Z,5.18
2023-02-22T02:04:25.619Z,5.00
2023-02-22T02:09:35.820Z,4.00
2023-02-22T02:14:40.630Z,5.18
2023-02-22T02:20:13.252Z,5.05
2023-02-22T02:25:54.591Z,6.47
2023-02-22T02:31:20.613Z,5.03
2023-02-22T02:36:31.843Z,5.10
2023-02-22T02:41:39.892Z,5.20
2023-02-22T02:46:56.200Z,5.25
2023-02-22T02:51:59.440Z,5.72
2023-02-22T02:57:03.091Z,5.70
2023-02-22T03:02:28.613Z,4.50
2023-02-22T03:08:10.901Z,5.30
2023-02-22T03:13:30.632Z,5.80
2023-02-22T03:18:49.097Z,5.30
2023-02-22T03:24:06.186Z,5.35
2023-02-22T03:29:11.707Z,5.18
2023-02-22T03:34:19.723Z,5.32
2023-02-22T03:39:31.118Z,5.38
2023-02-22T03:44:38.034Z,4.55
2023-02-22T03:49:55.844Z,6.10
2023-02-22T03:54:57.737Z,5.18
2023-02-22T03:59:59.715Z,5.45
2023-02-22T04:05:01.836Z,5.00
2023-02-22T04:10:04.726Z,5.93
2023-02-22T04:15:09.427Z,6.40
2023-02-22T04:20:13.719Z,5.30
2023-02-22T04:25:29.993Z,6.05
2023-02-22T04:30:32.422Z,6.53
2023-02-22T04:35:35.761Z,6.20
2023-02-22T04:40:39.004Z,6.80
2023-02-22T04:45:41.863Z,6.75
2023-02-22T04:50:44.296Z,6.70
2023-02-22T04:55:46.399Z,6.63
2023-02-22T05:00:48.204Z,6.57
2023-02-22T05:05:52.410Z,6.57
2023-02-22T05:10:54.807Z,6.50
2023-02-22T05:15:56.686Z,6.68
2023-02-22T05:20:58.437Z,7.15
2023-02-22T05:26:00.676Z,6.55
2023-02-22T05:31:02.483Z,7.88
2023-02-22T05:36:04.452Z,7.97
2023-02-22T05:41:06.145Z,8.57
2023-02-22T05:46:08.325Z,7.22
2023-02-22T05:51:10.759Z,7.25
2023-02-22T05:56:12.534Z,6.07
2023-02-22T06:01:14.265Z,7.25
2023-02-22T06:06:17.778Z,6.82
2023-02-22T06:11:19.982Z,7.60
2023-02-22T06:16:22.729Z,7.43
2023-02-22T06:21:24.493Z,7.93
2023-02-22T06:26:26.285Z,7.88
2023-02-22T06:31:28.088Z,7.30
2023-02-22T06:36:30.546Z,6.32
2023-02-22T06:41:32.324Z,8.00
2023-02-22T06:46:34.209Z,7.10
2023-02-22T06:51:37.625Z,12.43
2023-02-22T06:56:39.521Z,11.13
2023-02-22T07:06:59.234Z,9.73
2023-02-22T07:12:01.020Z,9.95
2023-02-22T07:17:03.382Z,7.50
2023-02-22T07:22:06.218Z,7.70
2023-02-22T07:27:07.976Z,7.53
2023-02-22T07:32:10.363Z,7.57
2023-02-22T07:37:12.154Z,7.00
2023-02-22T07:42:13.962Z,8.48
2023-02-22T07:47:16.048Z,7.95
2023-02-22T07:52:18.043Z,8.05
2023-02-22T07:57:19.783Z,8.63
2023-02-22T08:02:21.770Z,8.38
2023-02-22T08:07:23.539Z,8.38
2023-02-22T08:12:25.339Z,7.60
2023-02-22T08:17:27.099Z,8.27
2023-02-22T08:22:29.203Z,7.07
2023-02-22T08:27:31.312Z,7.78
2023-02-22T08:32:33.511Z,8.13
2023-02-22T08:37:35.408Z,7.78
2023-02-22T08:42:37.206Z,7.25
2023-02-22T08:47:39.183Z,7.90
2023-02-22T08:52:40.922Z,6.53
2023-02-22T08:57:42.670Z,7.53
2023-02-22T09:02:44.694Z,7.20
2023-02-22T09:07:46.496Z,7.15
2023-02-22T09:12:48.276Z,6.55
2023-02-22T09:17:50.238Z,7.38
2023-02-22T09:22:53.174Z,6.72
2023-02-22T09:27:56.166Z,5.95
2023-02-22T09:33:04.266Z,6.25
2023-02-22T09:38:06.564Z,6.78
2023-02-22T09:43:41.703Z,6.60
2023-02-22T09:49:05.502Z,6.65
2023-02-22T09:54:17.669Z,7.35
2023-02-22T09:59:30.115Z,6.35
2023-02-22T10:04:34.934Z,6.28
2023-02-22T10:09:42.887Z,7.40
2023-02-22T10:15:04.837Z,7.20
2023-02-22T10:20:06.846Z,6.20
2023-02-22T10:25:21.786Z,6.90
2023-02-22T10:30:54.801Z,7.63
2023-02-22T10:35:56.797Z,7.97
2023-02-22T10:41:10.851Z,6.68
2023-02-22T10:46:17.807Z,5.60
2023-02-22T10:51:20.753Z,5.72
2023-02-22T10:56:25.476Z,5.57
2023-02-22T11:01:35.407Z,5.85
2023-02-22T11:06:38.074Z,5.93
2023-02-22T11:11:42.755Z,5.82
2023-02-22T11:16:52.726Z,5.55
2023-02-22T11:22:22.569Z,6.22
2023-02-22T11:27:40.511Z,6.05
2023-02-22T11:32:53.741Z,5.10
2023-02-22T11:38:17.089Z,4.50
2023-02-22T11:43:20.645Z,5.07
2023-02-22T11:48:23.329Z,4.90
2023-02-22T11:53:34.364Z,5.35
2023-02-22T11:59:36.810Z,4.82
2023-02-22T12:05:03.109Z,5.90
2023-02-22T12:10:25.191Z,6.25
2023-02-22T12:15:29.961Z,5.07
2023-02-22T12:20:45.615Z,6.15
2023-02-22T12:25:58.831Z,5.45
2023-02-22T12:36:56.694Z,5.57
2023-02-22T12:42:02.068Z,5.05
2023-02-22T12:47:07.864Z,4.18
2023-02-22T12:52:46.796Z,4.28
2023-02-22T12:57:51.284Z,4.35
2023-02-22T13:03:04.763Z,4.35
2023-02-22T13:08:06.460Z,4.88
2023-02-22T13:13:11.277Z,4.50
2023-02-22T13:24:03.654Z,4.82
2023-02-22T13:29:13.872Z,4.78
2023-02-22T13:34:40.880Z,4.53
2023-02-22T13:39:57.770Z,4.95
2023-02-22T13:45:16.554Z,4.82
2023-02-22T13:50:33.353Z,4.13
2023-02-22T13:55:38.210Z,3.92
2023-02-22T14:00:52.674Z,3.97
2023-02-22T14:05:57.268Z,4.47
2023-02-22T14:11:20.108Z,4.15
2023-02-22T14:16:25.206Z,3.88
2023-02-22T14:21:27.023Z,4.10
2023-02-22T14:26:34.813Z,4.15
2023-02-22T14:31:46.644Z,4.13
2023-02-22T14:37:07.771Z,4.20
2023-02-22T14:42:24.260Z,3.78
2023-02-22T14:47:39.986Z,3.45
2023-02-22T14:52:46.698Z,3.58
2023-02-22T15:03:22.393Z,3.65
2023-02-22T15:08:28.390Z,3.60
2023-02-22T15:13:33.188Z,3.58
2023-02-22T15:18:43.480Z,3.65
2023-02-22T15:23:49.064Z,3.42
2023-02-22T15:28:55.800Z,3.72
2023-02-22T15:33:57.933Z,3.38
2023-02-22T15:44:28.992Z,2.80
2023-02-22T15:49:38.031Z,3.38
2023-02-22T15:54:44.222Z,5.00
2023-02-22T15:59:53.045Z,5.95
2023-02-22T16:05:01.837Z,6.35
2023-02-22T16:10:09.304Z,15.98
2023-02-22T16:15:17.216Z,36.95
2023-02-22T16:20:22.152Z,18.85
2023-02-22T16:25:31.197Z,12.68
2023-02-22T16:30:36.609Z,14.52
2023-02-22T16:35:38.563Z,13.98
2023-02-22T16:40:46.255Z,13.75
2023-02-22T16:45:48.513Z,11.30
2023-02-22T16:50:52.176Z,14.13
2023-02-22T16:56:00.815Z,11.88
2023-02-22T17:01:03.284Z,11.50
2023-02-22T17:06:05.391Z,11.68
2023-02-22T17:11:08.432Z,12.95
2023-02-22T17:16:16.997Z,10.85
2023-02-22T17:21:19.097Z,11.65
2023-02-22T17:26:20.911Z,11.20
2023-02-22T17:31:26.935Z,10.60
2023-02-22T17:36:30.066Z,11.77
2023-02-22T17:41:57.876Z,18.55
2023-02-22T17:47:24.770Z,12.00
2023-02-22T17:52:30.229Z,12.60
2023-02-22T17:57:32.530Z,14.02
2023-02-22T18:02:34.656Z,11.32
2023-02-22T18:07:36.898Z,11.73
2023-02-22T18:12:39.895Z,11.50
2023-02-22T18:17:41.647Z,11.68
2023-02-22T18:22:44.385Z,11.52
2023-02-22T18:27:46.142Z,10.38
2023-02-22T18:32:47.971Z,11.10
2023-02-22T18:38:25.595Z,11.88
2023-02-22T18:43:28.216Z,11.68
2023-02-22T18:48:29.957Z,10.57
2023-02-22T18:53:32.337Z,17.73
2023-02-22T18:58:35.095Z,12.15
2023-02-22T19:03:38.348Z,10.65
2023-02-22T19:08:42.646Z,11.38
2023-02-22T19:13:48.355Z,11.27
2023-02-22T19:18:52.510Z,11.85
2023-02-22T19:23:54.439Z,14.05
2023-02-22T19:28:58.600Z,12.07
2023-02-22T19:34:09.161Z,12.75
2023-02-22T19:39:11.744Z,12.48
2023-02-22T19:44:13.844Z,12.15
2023-02-22T19:49:16.298Z,13.20
2023-02-22T19:54:21.324Z,12.82
2023-02-22T19:59:23.666Z,12.70
2023-02-22T20:04:25.757Z,11.63
2023-02-22T20:09:43.243Z,11.57
2023-02-22T20:14:46.381Z,12.35
2023-02-22T20:19:48.948Z,13.50
2023-02-22T20:24:52.258Z,14.43
2023-02-22T20:30:25.646Z,15.02
2023-02-22T20:35:27.970Z,14.95
2023-02-22T20:40:29.719Z,15.63
2023-02-22T20:45:32.308Z,16.60
2023-02-22T20:50:35.621Z,14.52
2023-02-22T20:55:37.407Z,13.80
2023-02-22T21:00:39.170Z,13.50
2023-02-22T21:05:45.423Z,13.18
2023-02-22T21:10:48.306Z,13.43
2023-02-22T21:15:52.707Z,14.70
2023-02-22T21:20:54.517Z,13.73
2023-02-22T21:26:03.560Z,13.65
2023-02-22T21:31:08.055Z,13.60
2023-02-22T21:36:13.579Z,13.73
2023-02-22T21:41:17.159Z,13.35
2023-02-22T21:46:19.724Z,13.43
2023-02-22T21:51:25.479Z,12.82
2023-02-22T21:56:28.945Z,12.73
2023-02-22T22:01:36.643Z,13.60
2023-02-22T22:06:38.395Z,13.60
2023-02-22T22:11:40.134Z,12.98
2023-02-22T22:16:41.900Z,12.40
2023-02-22T22:21:44.022Z,14.15
2023-02-22T22:26:45.808Z,14.90
2023-02-22T22:31:47.766Z,14.68
2023-02-22T22:36:49.774Z,14.95
2023-02-22T22:41:52.198Z,14.95
2023-02-22T22:46:54.934Z,13.43
2023-02-22T22:51:56.710Z,15.20
2023-02-22T22:56:58.691Z,14.63
2023-02-22T23:02:03.125Z,14.15
2023-02-22T23:07:06.666Z,13.52
2023-02-22T23:12:16.941Z,13.30
2023-02-22T23:17:31.282Z,12.68
2023-02-22T23:22:33.347Z,13.60
2023-02-22T23:27:35.216Z,15.02
2023-02-22T23:32:37.028Z,14.50
2023-02-22T23:37:39.979Z,12.75
2023-02-22T23:42:42.148Z,14.32
2023-02-22T23:47:43.966Z,14.60
2023-02-22T23:52:46.347Z,15.27
2023-02-22T23:57:48.173Z,13.85
